sensor_id;sensor_type;location;lat;lon;timestamp;P1;durP1;ratioP1;P2;durP2;ratioP2
23594;SDS011;11975;47.674;9.472;2023-03-14T03:41:33;1999.90;;;999.90;;
23594;SDS011;11975;47.674;9.472;2023-03-14T03:43:59;1999.90;;;999.90;;
23594;SDS011;11975;47.674;9.472;2023-03-14T03:46:25;1999.90;;;999.90;;
23594;SDS011;11975;47.674;9.472;2023-03-14T03:48:57;1999.90;;;999.90;;
23594;SDS011;11975;47.674;9.472;2023-03-14T03:51:24;1999.90;;;999.90;;
23594;SDS011;11975;47.674;9.472;2023-03-14T03:53:50;1999.90;;;999.90;;
23594;SDS011;11975;47.674;9.472;2023-03-14T03:56:16;1999.90;;;999.90;;
23594;SDS011;11975;47.674;9.472;2023-03-14T03:58:42;1506.45;;;756.08;;
23594;SDS011;11975;47.674;9.472;2023-03-14T04:01:09;25.95;;;24.50;;
23594;SDS011;11975;47.674;9.472;2023-03-14T04:03:36;25.90;;;24.50;;
23594;SDS011;11975;47.674;9.472;2023-03-14T04:06:05;25.17;;;23.77;;
23594;SDS011;11975;47.674;9.472;2023-03-14T04:08:33;25.55;;;24.15;;
23594;SDS011;11975;47.674;9.472;2023-03-14T04:10:59;25.48;;;24.08;;
23594;SDS011;11975;47.674;9.472;2023-03-14T04:15:52;24.92;;;23.52;;
23594;SDS011;11975;47.674;9.472;2023-03-14T04:18:18;25.40;;;24.00;;
23594;SDS011;11975;47.674;9.472;2023-03-14T04:20:44;24.73;;;23.33;;
23594;SDS011;11975;47.674;9.472;2023-03-14T04:23:10;25.42;;;24.02;;
23594;SDS011;11975;47.674;9.472;2023-03-14T04:25:36;25.35;;;23.95;;
23594;SDS011;11975;47.674;9.472;2023-03-14T04:28:02;24.38;;;23.00;;
23594;SDS011;11975;47.674;9.472;2023-03-14T04:30:29;24.67;;;23.27;;
23594;SDS011;11975;47.674;9.472;2023-03-14T04:32:55;25.63;;;24.23;;
23594;SDS011;11975;47.674;9.472;2023-03-14T04:35:21;25.77;;;24.35;;
23594;SDS011;11975;47.674;9.472;2023-03-14T04:37:47;25.30;;;23.90;;
23594;SDS011;11975;47.674;9.472;2023-03-14T04:40:14;24.98;;;23.58;;
23594;SDS011;11975;47.674;9.472;2023-03-14T04:42:41;25.92;;;24.50;;
23594;SDS011;11975;47.674;9.472;2023-03-14T04:45:07;25.95;;;24.50;;
23594;SDS011;11975;47.674;9.472;2023-03-14T04:47:33;25.90;;;24.47;;
23594;SDS011;11975;47.674;9.472;2023-03-14T04:50:00;26.95;;;25.45;;
23594;SDS011;11975;47.674;9.472;2023-03-14T04:52:26;26.73;;;25.23;;
23594;SDS011;11975;47.674;9.472;2023-03-14T04:54:52;26.55;;;25.05;;
23594;SDS011;11975;47.674;9.472;2023-03-14T04:57:18;26.73;;;25.23;;
23594;SDS011;11975;47.674;9.472;2023-03-14T04:59:44;26.48;;;24.98;;
23594;SDS011;11975;47.674;9.472;2023-03-14T05:02:10;27.15;;;25.65;;
23594;SDS011;11975;47.674;9.472;2023-03-14T05:04:36;26.60;;;25.10;;
23594;SDS011;11975;47.674;9.472;2023-03-14T05:07:02;27.30;;;25.80;;
23594;SDS011;11975;47.674;9.472;2023-03-14T05:09:28;27.20;;;25.70;;
23594;SDS011;11975;47.674;9.472;2023-03-14T05:11:54;26.52;;;25.02;;
23594;SDS011;11975;47.674;9.472;2023-03-14T05:14:20;26.25;;;24.75;;
23594;SDS011;11975;47.674;9.472;2023-03-14T05:16:46;25.88;;;24.48;;
23594;SDS011;11975;47.674;9.472;2023-03-14T05:19:12;25.30;;;23.90;;
23594;SDS011;11975;47.674;9.472;2023-03-14T05:21:38;26.25;;;24.75;;
23594;SDS011;11975;47.674;9.472;2023-03-14T05:24:04;26.98;;;25.48;;
23594;SDS011;11975;47.674;9.472;2023-03-14T05:26:30;25.98;;;24.50;;
23594;SDS011;11975;47.674;9.472;2023-03-14T05:28:56;25.77;;;24.38;;
23594;SDS011;11975;47.674;9.472;2023-03-14T05:31:21;25.95;;;24.40;;
23594;SDS011;11975;47.674;9.472;2023-03-14T05:33:47;25.65;;;24.20;;
23594;SDS011;11975;47.674;9.472;2023-03-14T05:36:13;25.95;;;24.48;;
23594;SDS011;11975;47.674;9.472;2023-03-14T05:38:39;25.70;;;24.30;;
23594;SDS011;11975;47.674;9.472;2023-03-14T17:27:34;33.60;;;31.70;;
23594;SDS011;11975;47.674;9.472;2023-03-14T17:30:01;33.90;;;30.95;;
23594;SDS011;11975;47.674;9.472;2023-03-14T17:32:29;29.88;;;28.17;;
23594;SDS011;11975;47.674;9.472;2023-03-14T17:34:55;28.90;;;27.27;;
23594;SDS011;11975;47.674;9.472;2023-03-14T17:37:21;26.88;;;25.38;;
23594;SDS011;11975;47.674;9.472;2023-03-14T17:39:47;27.48;;;25.70;;
23594;SDS011;11975;47.674;9.472;2023-03-14T17:42:12;33.40;;;31.00;;
23594;SDS011;11975;47.674;9.472;2023-03-14T17:44:38;24.38;;;22.98;;
23594;SDS011;11975;47.674;9.472;2023-03-14T17:47:04;23.95;;;22.40;;
23594;SDS011;11975;47.674;9.472;2023-03-14T17:49:30;22.52;;;21.33;;
23594;SDS011;11975;47.674;9.472;2023-03-14T17:51:56;23.40;;;22.10;;
23594;SDS011;11975;47.674;9.472;2023-03-14T17:54:22;23.38;;;22.08;;
23594;SDS011;11975;47.674;9.472;2023-03-14T17:56:48;23.13;;;21.83;;
23594;SDS011;11975;47.674;9.472;2023-03-14T17:59:14;22.83;;;21.52;;
23594;SDS011;11975;47.674;9.472;2023-03-14T18:01:40;22.63;;;21.33;;
23594;SDS011;11975;47.674;9.472;2023-03-14T18:04:08;23.00;;;21.70;;
23594;SDS011;11975;47.674;9.472;2023-03-14T18:06:34;23.75;;;22.38;;
23594;SDS011;11975;47.674;9.472;2023-03-14T18:09:00;22.90;;;21.60;;
23594;SDS011;11975;47.674;9.472;2023-03-14T18:11:28;23.10;;;21.80;;
23594;SDS011;11975;47.674;9.472;2023-03-14T18:13:54;23.80;;;22.50;;
23594;SDS011;11975;47.674;9.472;2023-03-14T18:16:20;23.27;;;21.98;;
23594;SDS011;11975;47.674;9.472;2023-03-14T18:18:46;22.85;;;21.55;;
23594;SDS011;11975;47.674;9.472;2023-03-14T18:21:17;23.60;;;22.30;;
23594;SDS011;11975;47.674;9.472;2023-03-14T18:23:43;22.90;;;21.60;;
23594;SDS011;11975;47.674;9.472;2023-03-14T18:26:09;23.15;;;21.85;;
23594;SDS011;11975;47.674;9.472;2023-03-14T18:28:35;23.25;;;21.95;;
23594;SDS011;11975;47.674;9.472;2023-03-14T18:31:04;23.02;;;21.73;;
23594;SDS011;11975;47.674;9.472;2023-03-14T18:33:32;23.75;;;22.45;;
23594;SDS011;11975;47.674;9.472;2023-03-14T18:36:05;24.27;;;22.88;;
23594;SDS011;11975;47.674;9.472;2023-03-14T18:38:35;23.98;;;22.67;;
23594;SDS011;11975;47.674;9.472;2023-03-14T18:41:08;23.50;;;22.20;;
23594;SDS011;11975;47.674;9.472;2023-03-14T18:43:35;24.08;;;22.77;;
23594;SDS011;11975;47.674;9.472;2023-03-14T18:46:02;24.80;;;23.40;;
23594;SDS011;11975;47.674;9.472;2023-03-14T18:48:28;25.30;;;23.90;;
23594;SDS011;11975;47.674;9.472;2023-03-14T18:50:54;25.63;;;24.23;;
23594;SDS011;11975;47.674;9.472;2023-03-14T18:53:22;26.15;;;24.65;;
23594;SDS011;11975;47.674;9.472;2023-03-14T18:55:59;27.20;;;25.60;;
23594;SDS011;11975;47.674;9.472;2023-03-14T18:58:25;27.08;;;25.55;;
23594;SDS011;11975;47.674;9.472;2023-03-14T19:01:03;27.30;;;25.77;;
23594;SDS011;11975;47.674;9.472;2023-03-14T19:03:31;27.13;;;25.63;;
23594;SDS011;11975;47.674;9.472;2023-03-14T19:05:58;27.95;;;26.35;;
23594;SDS011;11975;47.674;9.472;2023-03-14T19:08:25;27.48;;;25.88;;
23594;SDS011;11975;47.674;9.472;2023-03-14T19:13:22;28.48;;;26.88;;
23594;SDS011;11975;47.674;9.472;2023-03-14T19:15:48;27.77;;;26.20;;
23594;SDS011;11975;47.674;9.472;2023-03-14T19:18:15;26.58;;;25.08;;
23594;SDS011;11975;47.674;9.472;2023-03-14T19:20:41;27.23;;;25.70;;
23594;SDS011;11975;47.674;9.472;2023-03-14T19:23:07;26.45;;;24.95;;
23594;SDS011;11975;47.674;9.472;2023-03-14T19:25:33;27.20;;;25.70;;
23594;SDS011;11975;47.674;9.472;2023-03-14T19:27:59;26.95;;;25.45;;
23594;SDS011;11975;47.674;9.472;2023-03-14T19:30:26;26.58;;;25.08;;
23594;SDS011;11975;47.674;9.472;2023-03-14T19:32:52;27.33;;;25.83;;
23594;SDS011;11975;47.674;9.472;2023-03-14T19:35:18;27.58;;;25.73;;
23594;SDS011;11975;47.674;9.472;2023-03-14T19:37:44;27.17;;;25.65;;
23594;SDS011;11975;47.674;9.472;2023-03-14T19:40:10;27.65;;;26.05;;
23594;SDS011;11975;47.674;9.472;2023-03-14T19:42:37;27.35;;;25.85;;
23594;SDS011;11975;47.674;9.472;2023-03-14T19:45:03;27.95;;;26.38;;
23594;SDS011;11975;47.674;9.472;2023-03-14T19:47:30;28.23;;;26.63;;
23594;SDS011;11975;47.674;9.472;2023-03-14T19:49:56;28.60;;;27.00;;
23594;SDS011;11975;47.674;9.472;2023-03-14T19:52:25;27.83;;;26.25;;
23594;SDS011;11975;47.674;9.472;2023-03-14T19:54:51;27.60;;;26.05;;
23594;SDS011;11975;47.674;9.472;2023-03-14T19:57:17;28.55;;;26.95;;
23594;SDS011;11975;47.674;9.472;2023-03-14T19:59:43;28.08;;;26.48;;
23594;SDS011;11975;47.674;9.472;2023-03-14T20:02:12;28.25;;;26.65;;
23594;SDS011;11975;47.674;9.472;2023-03-14T20:04:39;27.92;;;26.33;;
23594;SDS011;11975;47.674;9.472;2023-03-14T20:07:09;26.70;;;25.20;;
23594;SDS011;11975;47.674;9.472;2023-03-14T20:09:39;28.45;;;26.85;;
23594;SDS011;11975;47.674;9.472;2023-03-14T20:12:06;28.45;;;26.85;;
23594;SDS011;11975;47.674;9.472;2023-03-14T20:14:32;27.67;;;26.07;;
23594;SDS011;11975;47.674;9.472;2023-03-14T20:16:58;27.30;;;25.80;;
23594;SDS011;11975;47.674;9.472;2023-03-14T20:19:24;27.52;;;26.00;;
23594;SDS011;11975;47.674;9.472;2023-03-14T20:21:51;27.75;;;26.17;;
23594;SDS011;11975;47.674;9.472;2023-03-14T20:24:17;26.40;;;24.90;;
23594;SDS011;11975;47.674;9.472;2023-03-14T20:26:43;27.10;;;25.52;;
23594;SDS011;11975;47.674;9.472;2023-03-14T20:29:09;26.85;;;25.35;;
23594;SDS011;11975;47.674;9.472;2023-03-14T20:31:35;26.55;;;24.98;;
23594;SDS011;11975;47.674;9.472;2023-03-14T20:34:03;26.02;;;24.58;;
23594;SDS011;11975;47.674;9.472;2023-03-14T20:36:29;25.77;;;24.33;;
23594;SDS011;11975;47.674;9.472;2023-03-14T20:38:55;25.58;;;24.15;;
23594;SDS011;11975;47.674;9.472;2023-03-14T20:41:21;25.25;;;23.85;;
23594;SDS011;11975;47.674;9.472;2023-03-14T20:43:47;25.10;;;23.70;;
23594;SDS011;11975;47.674;9.472;2023-03-14T20:46:14;25.90;;;24.30;;
23594;SDS011;11975;47.674;9.472;2023-03-14T20:48:41;24.52;;;23.13;;
23594;SDS011;11975;47.674;9.472;2023-03-14T20:53:36;23.92;;;22.63;;
23594;SDS011;11975;47.674;9.472;2023-03-14T20:56:03;24.08;;;22.67;;
23594;SDS011;11975;47.674;9.472;2023-03-14T20:58:29;24.52;;;23.13;;
23594;SDS011;11975;47.674;9.472;2023-03-14T21:00:55;23.85;;;22.55;;
23594;SDS011;11975;47.674;9.472;2023-03-14T21:03:22;24.30;;;22.90;;
23594;SDS011;11975;47.674;9.472;2023-03-14T21:05:48;23.70;;;22.40;;
23594;SDS011;11975;47.674;9.472;2023-03-14T21:08:15;24.35;;;22.95;;
23594;SDS011;11975;47.674;9.472;2023-03-14T21:10:45;24.58;;;23.17;;
23594;SDS011;11975;47.674;9.472;2023-03-14T21:13:11;24.02;;;22.63;;
23594;SDS011;11975;47.674;9.472;2023-03-14T21:15:37;24.85;;;23.45;;
23594;SDS011;11975;47.674;9.472;2023-03-14T21:18:03;24.77;;;23.33;;
23594;SDS011;11975;47.674;9.472;2023-03-14T21:20:33;24.60;;;23.20;;
23594;SDS011;11975;47.674;9.472;2023-03-14T21:23:01;25.45;;;24.05;;
23594;SDS011;11975;47.674;9.472;2023-03-14T21:25:29;24.48;;;23.08;;
23594;SDS011;11975;47.674;9.472;2023-03-14T21:27:55;24.90;;;23.50;;
23594;SDS011;11975;47.674;9.472;2023-03-14T21:30:22;23.77;;;22.48;;
23594;SDS011;11975;47.674;9.472;2023-03-14T21:32:48;24.45;;;23.05;;
23594;SDS011;11975;47.674;9.472;2023-03-14T21:35:14;24.52;;;23.13;;
23594;SDS011;11975;47.674;9.472;2023-03-14T21:37:40;24.58;;;23.17;;
23594;SDS011;11975;47.674;9.472;2023-03-14T21:40:06;24.63;;;23.23;;
23594;SDS011;11975;47.674;9.472;2023-03-14T21:42:35;24.23;;;22.90;;
23594;SDS011;11975;47.674;9.472;2023-03-14T21:45:01;24.13;;;22.77;;
23594;SDS011;11975;47.674;9.472;2023-03-14T21:47:27;24.08;;;22.77;;
23594;SDS011;11975;47.674;9.472;2023-03-14T21:49:53;24.23;;;22.88;;
23594;SDS011;11975;47.674;9.472;2023-03-14T21:52:19;24.27;;;22.92;;
23594;SDS011;11975;47.674;9.472;2023-03-14T21:54:46;24.25;;;22.92;;
23594;SDS011;11975;47.674;9.472;2023-03-14T21:57:13;24.50;;;23.10;;
23594;SDS011;11975;47.674;9.472;2023-03-14T21:59:40;24.05;;;22.65;;
23594;SDS011;11975;47.674;9.472;2023-03-14T22:02:10;24.73;;;23.33;;
23594;SDS011;11975;47.674;9.472;2023-03-14T22:04:38;23.73;;;22.42;;
23594;SDS011;11975;47.674;9.472;2023-03-14T22:07:08;24.70;;;23.30;;
23594;SDS011;11975;47.674;9.472;2023-03-14T22:09:37;24.30;;;22.92;;
23594;SDS011;11975;47.674;9.472;2023-03-14T22:12:04;24.67;;;23.27;;
23594;SDS011;11975;47.674;9.472;2023-03-14T22:14:29;24.20;;;22.85;;
23594;SDS011;11975;47.674;9.472;2023-03-14T22:16:56;24.73;;;23.33;;
23594;SDS011;11975;47.674;9.472;2023-03-14T22:19:24;24.58;;;23.17;;
23594;SDS011;11975;47.674;9.472;2023-03-14T22:21:51;24.38;;;23.02;;
23594;SDS011;11975;47.674;9.472;2023-03-14T22:24:17;24.30;;;22.92;;
23594;SDS011;11975;47.674;9.472;2023-03-14T22:26:43;24.38;;;22.92;;
23594;SDS011;11975;47.674;9.472;2023-03-14T22:29:09;24.38;;;22.98;;
23594;SDS011;11975;47.674;9.472;2023-03-14T22:31:35;24.13;;;22.77;;
23594;SDS011;11975;47.674;9.472;2023-03-14T22:34:01;25.38;;;23.92;;
23594;SDS011;11975;47.674;9.472;2023-03-14T22:36:27;25.67;;;23.60;;
23594;SDS011;11975;47.674;9.472;2023-03-14T22:38:53;24.38;;;22.98;;
23594;SDS011;11975;47.674;9.472;2023-03-14T22:41:19;24.77;;;23.38;;
23594;SDS011;11975;47.674;9.472;2023-03-14T22:43:45;24.83;;;23.42;;
23594;SDS011;11975;47.674;9.472;2023-03-14T22:46:12;25.13;;;23.73;;
23594;SDS011;11975;47.674;9.472;2023-03-14T22:48:38;25.33;;;23.90;;
23594;SDS011;11975;47.674;9.472;2023-03-14T22:51:05;25.67;;;24.25;;
23594;SDS011;11975;47.674;9.472;2023-03-14T22:53:32;26.33;;;24.80;;
23594;SDS011;11975;47.674;9.472;2023-03-14T22:55:58;26.23;;;24.75;;
23594;SDS011;11975;47.674;9.472;2023-03-14T22:58:25;25.60;;;24.17;;
23594;SDS011;11975;47.674;9.472;2023-03-14T23:00:52;25.55;;;24.13;;
23594;SDS011;11975;47.674;9.472;2023-03-14T23:03:18;26.00;;;24.55;;
23594;SDS011;11975;47.674;9.472;2023-03-14T23:05:44;26.73;;;25.23;;
23594;SDS011;11975;47.674;9.472;2023-03-14T23:08:10;26.65;;;25.13;;
23594;SDS011;11975;47.674;9.472;2023-03-14T23:10:36;26.10;;;24.63;;
23594;SDS011;11975;47.674;9.472;2023-03-14T23:13:02;26.63;;;25.13;;
23594;SDS011;11975;47.674;9.472;2023-03-14T23:15:30;25.73;;;24.30;;
23594;SDS011;11975;47.674;9.472;2023-03-14T23:17:56;27.20;;;25.67;;
23594;SDS011;11975;47.674;9.472;2023-03-14T23:20:22;26.85;;;25.33;;
23594;SDS011;11975;47.674;9.472;2023-03-14T23:22:49;27.10;;;25.55;;
